Orlando, Oklahoma
Current Conditions -  °F | °C
As of 2:00 PM on Thursday 18 Dec 2014 (Local Time) from KSWO Reporting Station
Overcast Overcast  
Wind Chill: 39°   Ceiling: 1600
Heat Index: 43°   Visibility: 10mi
Dew Point: 38°   Wind: 6mph
Humidity: 82%   Direction: 20°NNE
Pressure: 30.15"   Gusts: NA
Location:  36.15°N, 97.38°W
Report Text: KSWO 182000Z 02005KT 10SM FEW010 OVC016 06/03 A3015 RMK AO2 T00610033
Loading
Personal Weather Stations






























Interactive Weather Map New forecast layout! Learn more

10-Day Weather Forecast

Advertisements
Track Severe Weather on mobile